createdAt,value
2022-07-26T00:00:35.937Z,7.40
2022-07-26T00:03:21.763Z,7.50
2022-07-26T00:06:07.775Z,7.60
2022-07-26T00:08:54.305Z,7.82
2022-07-26T00:11:40.384Z,7.90
2022-07-26T00:14:26.569Z,7.60
2022-07-26T00:17:12.823Z,7.57
2022-07-26T00:19:58.797Z,6.85
2022-07-26T00:22:44.750Z,7.75
2022-07-26T00:25:30.652Z,7.90
2022-07-26T00:28:16.739Z,7.53
2022-07-26T00:31:02.877Z,7.38
2022-07-26T00:33:49.027Z,7.80
2022-07-26T00:36:34.962Z,7.40
2022-07-26T00:39:22.400Z,7.22
2022-07-26T00:42:08.149Z,6.68
2022-07-26T00:44:54.105Z,7.78
2022-07-26T00:47:40.436Z,7.07
2022-07-26T00:50:26.479Z,7.70
2022-07-26T00:53:12.465Z,7.68
2022-07-26T00:55:58.729Z,7.38
2022-07-26T00:58:45.297Z,7.82
2022-07-26T01:01:31.425Z,7.15
2022-07-26T01:04:17.658Z,7.38
2022-07-26T01:07:14.945Z,7.22
2022-07-26T01:10:03.275Z,8.00
2022-07-26T01:12:49.539Z,7.18
2022-07-26T01:15:35.773Z,7.47
2022-07-26T01:18:21.522Z,7.43
2022-07-26T01:21:13.360Z,7.30
2022-07-26T01:24:00.270Z,7.63
2022-07-26T01:26:46.334Z,7.50
2022-07-26T01:29:34.804Z,7.88
2022-07-26T01:32:22.585Z,7.75
2022-07-26T01:35:08.832Z,7.30
2022-07-26T01:37:54.700Z,7.45
2022-07-26T01:40:40.888Z,7.35
2022-07-26T01:43:26.882Z,7.30
2022-07-26T01:46:13.912Z,7.78
2022-07-26T01:49:01.750Z,7.20
2022-07-26T01:51:47.962Z,6.80
2022-07-26T01:54:33.781Z,7.25
2022-07-26T01:57:19.701Z,7.47
2022-07-26T02:00:07.289Z,7.60
2022-07-26T02:02:53.470Z,7.88
2022-07-26T02:05:39.767Z,7.40
2022-07-26T02:08:25.693Z,7.72
2022-07-26T02:11:11.634Z,7.40
2022-07-26T02:13:57.563Z,7.38
2022-07-26T02:16:43.449Z,7.07
2022-07-26T02:19:30.522Z,6.35
2022-07-26T02:22:16.758Z,7.05
2022-07-26T02:25:05.266Z,7.40
2022-07-26T02:27:52.398Z,7.25
2022-07-26T02:30:38.380Z,6.97
2022-07-26T02:33:25.571Z,7.15
2022-07-26T02:36:11.512Z,7.90
2022-07-26T02:38:57.472Z,7.15
2022-07-26T02:41:43.365Z,6.85
2022-07-26T02:44:29.709Z,7.05
2022-07-26T02:47:15.604Z,7.15
2022-07-26T02:50:01.565Z,7.05
2022-07-26T02:52:48.363Z,7.07
2022-07-26T02:55:34.416Z,7.07
2022-07-26T02:58:25.071Z,6.72
2022-07-26T03:01:11.451Z,7.28
2022-07-26T03:03:58.579Z,7.13
2022-07-26T03:06:44.686Z,7.25
2022-07-26T03:09:30.902Z,6.72
2022-07-26T03:12:17.229Z,6.82
2022-07-26T03:15:03.310Z,7.80
2022-07-26T03:17:50.071Z,7.47
2022-07-26T03:20:36.202Z,6.95
2022-07-26T03:23:22.295Z,6.97
2022-07-26T03:26:08.964Z,7.53
2022-07-26T03:28:55.937Z,6.80
2022-07-26T03:31:41.740Z,6.72
2022-07-26T03:34:27.745Z,7.28
2022-07-26T03:37:13.702Z,7.68
2022-07-26T03:39:59.575Z,7.63
2022-07-26T03:42:47.617Z,7.18
2022-07-26T03:45:33.799Z,7.57
2022-07-26T03:48:19.887Z,7.75
2022-07-26T03:51:05.864Z,7.57
2022-07-26T03:53:52.244Z,7.82
2022-07-26T03:56:38.728Z,7.53
2022-07-26T03:59:25.705Z,7.80
2022-07-26T04:02:11.903Z,7.80
2022-07-26T04:04:57.675Z,7.82
2022-07-26T04:07:49.900Z,7.55
2022-07-26T04:10:39.630Z,7.80
2022-07-26T04:13:25.562Z,7.65
2022-07-26T04:16:11.681Z,7.78
2022-07-26T04:18:58.606Z,8.25
2022-07-26T04:21:44.698Z,7.38
2022-07-26T04:24:30.534Z,7.55
2022-07-26T04:27:16.466Z,7.78
2022-07-26T04:30:02.438Z,7.88
2022-07-26T04:32:48.548Z,7.32
2022-07-26T04:35:35.007Z,7.53
2022-07-26T04:38:20.875Z,7.65
2022-07-26T04:41:06.955Z,7.80
2022-07-26T04:43:53.228Z,7.82
2022-07-26T04:46:39.076Z,8.13
2022-07-26T04:49:30.896Z,8.40
2022-07-26T04:52:17.031Z,8.57
2022-07-26T04:55:04.189Z,8.63
2022-07-26T04:57:50.994Z,8.60
2022-07-26T05:01:02.760Z,8.63
2022-07-26T05:03:44.054Z,7.95
2022-07-26T05:06:29.981Z,7.93
2022-07-26T05:09:16.026Z,9.27
2022-07-26T05:12:02.087Z,8.50
2022-07-26T05:14:48.013Z,8.77
2022-07-26T05:17:35.482Z,9.38
2022-07-26T05:20:22.075Z,9.43
2022-07-26T05:23:08.245Z,8.90
2022-07-26T05:25:55.416Z,7.95
2022-07-26T05:28:41.900Z,9.15
2022-07-26T05:31:28.282Z,8.90
